createdAt,value
2022-11-24T00:02:14.765Z,87.55
2022-11-24T00:04:44.531Z,86.64
2022-11-24T00:07:14.629Z,86.00
2022-11-24T00:09:44.206Z,86.15
2022-11-24T00:12:14.150Z,85.93
2022-11-24T00:14:44.559Z,85.46
2022-11-24T00:17:13.975Z,85.07
2022-11-24T00:19:44.083Z,84.97
2022-11-24T00:22:13.810Z,85.14
2022-11-24T00:24:43.580Z,84.86
2022-11-24T00:27:13.516Z,85.01
2022-11-24T00:29:43.546Z,84.85
2022-11-24T00:32:13.307Z,84.85
2022-11-24T00:34:43.115Z,84.36
2022-11-24T00:37:12.849Z,84.37
2022-11-24T00:39:42.585Z,83.77
2022-11-24T00:42:14.093Z,84.36
2022-11-24T00:44:43.922Z,84.44
2022-11-24T00:47:13.792Z,84.18
2022-11-24T00:49:43.562Z,84.21
2022-11-24T00:52:13.174Z,84.91
2022-11-24T00:54:42.938Z,84.25
2022-11-24T00:57:12.722Z,84.28
2022-11-24T00:59:42.490Z,84.04
2022-11-24T01:02:12.299Z,84.12
2022-11-24T01:04:42.162Z,84.38
2022-11-24T01:07:12.041Z,84.02
2022-11-24T01:09:43.505Z,84.01
2022-11-24T01:12:13.485Z,84.15
2022-11-24T01:14:43.509Z,84.20
2022-11-24T01:17:13.537Z,84.31
2022-11-24T01:19:43.271Z,84.02
2022-11-24T01:22:13.023Z,84.20
2022-11-24T01:24:43.187Z,84.65
2022-11-24T01:27:13.000Z,84.16
2022-11-24T01:29:42.730Z,84.19
2022-11-24T01:32:12.506Z,84.05
2022-11-24T01:34:42.596Z,84.45
2022-11-24T01:37:12.057Z,84.28
2022-11-24T01:39:41.859Z,84.09
2022-11-24T01:42:11.785Z,84.27
2022-11-24T01:44:43.013Z,83.76
2022-11-24T01:47:33.682Z,83.96
2022-11-24T01:50:05.525Z,83.62
2022-11-24T01:52:41.143Z,82.71
2022-11-24T01:55:13.911Z,83.02
2022-11-24T01:57:58.570Z,83.50
2022-11-24T02:00:28.837Z,83.50
2022-11-24T02:02:59.824Z,83.92
2022-11-24T02:05:38.554Z,84.28
2022-11-24T02:08:12.843Z,83.98
2022-11-24T02:10:43.934Z,84.33
2022-11-24T02:13:15.782Z,83.90
2022-11-24T02:15:45.621Z,83.69
2022-11-24T02:18:15.032Z,84.83
2022-11-24T02:20:44.837Z,84.74
2022-11-24T02:23:20.553Z,84.85
2022-11-24T02:26:11.422Z,84.80
2022-11-24T02:28:41.744Z,84.37
2022-11-24T02:31:11.689Z,84.35
2022-11-24T02:33:41.632Z,83.55
2022-11-24T02:36:11.255Z,83.99
2022-11-24T02:38:40.994Z,83.63
2022-11-24T02:41:14.077Z,83.82
2022-11-24T02:43:46.278Z,83.43
2022-11-24T02:46:16.158Z,84.28
2022-11-24T02:48:46.036Z,84.35
2022-11-24T02:51:16.047Z,84.21
2022-11-24T02:53:46.136Z,84.71
2022-11-24T02:56:15.618Z,84.68
2022-11-24T02:58:45.663Z,84.01
2022-11-24T03:01:15.464Z,84.52
2022-11-24T03:03:45.356Z,84.12
2022-11-24T03:06:15.059Z,84.20
2022-11-24T03:08:45.181Z,84.48
2022-11-24T03:11:14.663Z,84.48
2022-11-24T03:13:44.394Z,84.75
2022-11-24T03:16:14.178Z,83.94
2022-11-24T03:18:43.925Z,83.34
2022-11-24T03:21:13.952Z,83.35
2022-11-24T03:23:43.688Z,83.31
2022-11-24T03:26:16.127Z,83.39
2022-11-24T03:28:46.485Z,82.84
2022-11-24T03:31:16.442Z,82.56
2022-11-24T03:33:46.183Z,83.04
2022-11-24T03:36:16.794Z,83.45
2022-11-24T03:38:46.760Z,83.90
2022-11-24T03:41:16.870Z,83.28
2022-11-24T03:43:46.586Z,83.57
2022-11-24T03:46:16.175Z,84.22
2022-11-24T03:48:45.858Z,83.87
2022-11-24T03:51:15.634Z,83.52
2022-11-24T03:53:45.400Z,82.82
2022-11-24T03:56:15.837Z,82.85
2022-11-24T03:58:45.630Z,82.94
2022-11-24T04:01:15.425Z,83.15
2022-11-24T04:03:45.172Z,82.55
2022-11-24T04:06:14.982Z,82.58
2022-11-24T04:08:44.803Z,82.78
2022-11-24T04:11:16.486Z,83.08
2022-11-24T04:13:48.417Z,83.46
2022-11-24T04:16:18.169Z,84.60
2022-11-24T04:18:47.895Z,84.72
2022-11-24T04:21:17.924Z,84.16
2022-11-24T04:23:48.087Z,84.43
2022-11-24T04:26:17.525Z,84.18
2022-11-24T04:28:47.280Z,84.74
2022-11-24T04:31:17.795Z,84.74
2022-11-24T04:33:47.575Z,83.39
2022-11-24T04:36:17.189Z,83.38
2022-11-24T04:39:23.378Z,84.19
2022-11-24T04:41:18.339Z,84.00
2022-11-24T04:43:50.454Z,83.80
2022-11-24T04:46:20.244Z,84.09
2022-11-24T04:48:49.994Z,84.36
2022-11-24T04:51:19.808Z,84.53
2022-11-24T04:53:52.970Z,83.61
2022-11-24T04:56:23.005Z,83.99
2022-11-24T04:58:52.736Z,84.49
2022-11-24T05:01:22.550Z,85.36
2022-11-24T05:03:57.229Z,85.44
2022-11-24T05:06:26.976Z,85.59
2022-11-24T05:08:56.711Z,85.99
2022-11-24T05:11:26.443Z,85.99
2022-11-24T05:13:56.170Z,87.13
2022-11-24T05:16:26.503Z,86.78
2022-11-24T05:18:56.526Z,86.82
2022-11-24T05:21:26.635Z,86.82
2022-11-24T05:23:56.065Z,87.06
2022-11-24T05:26:25.578Z,86.50
2022-11-24T05:28:55.543Z,86.58
2022-11-24T05:31:25.374Z,86.12
2022-11-24T05:33:55.109Z,85.44
2022-11-24T05:36:42.437Z,85.26
2022-11-24T05:39:12.163Z,85.62
2022-11-24T05:41:43.172Z,85.44
2022-11-24T05:44:13.000Z,85.72
2022-11-24T05:46:42.824Z,84.87
2022-11-24T05:49:12.581Z,85.82
2022-11-24T05:51:42.317Z,85.55
2022-11-24T05:54:11.729Z,85.70
2022-11-24T05:56:41.764Z,85.92
2022-11-24T05:59:11.488Z,85.41
2022-11-24T06:01:41.274Z,86.24
2022-11-24T06:04:11.198Z,85.64
2022-11-24T06:06:40.974Z,85.68
2022-11-24T06:09:10.685Z,85.84
2022-11-24T06:11:40.426Z,85.66
2022-11-24T06:14:12.816Z,85.71
2022-11-24T06:16:42.607Z,85.98
2022-11-24T06:19:12.970Z,85.20
2022-11-24T06:21:42.730Z,85.80
2022-11-24T06:24:12.211Z,85.89
2022-11-24T06:26:42.476Z,86.58
2022-11-24T06:29:12.197Z,85.54
2022-11-24T06:31:41.979Z,85.78
2022-11-24T06:34:13.804Z,85.59
2022-11-24T06:36:43.548Z,84.93
2022-11-24T06:39:13.259Z,84.92
2022-11-24T06:41:42.976Z,84.92
2022-11-24T06:44:12.750Z,86.41
2022-11-24T06:46:42.740Z,86.45
2022-11-24T06:49:12.641Z,86.45
2022-11-24T06:51:42.549Z,87.09
2022-11-24T06:54:15.043Z,86.48
2022-11-24T06:56:44.958Z,86.53
2022-11-24T06:59:20.389Z,86.63
2022-11-24T07:01:50.079Z,86.54
2022-11-24T07:04:20.249Z,86.83
2022-11-24T07:06:49.981Z,85.73
2022-11-24T07:09:19.708Z,85.67
2022-11-24T07:11:49.429Z,86.24
2022-11-24T07:14:19.113Z,86.01
2022-11-24T07:16:49.474Z,85.79
2022-11-24T07:19:24.718Z,85.46
2022-11-24T07:21:50.697Z,85.46
2022-11-24T07:24:20.508Z,85.30
2022-11-24T07:26:50.265Z,85.31
2022-11-24T07:29:20.031Z,85.60
2022-11-24T07:31:50.247Z,85.25
2022-11-24T07:34:19.997Z,85.10
2022-11-24T07:36:50.131Z,85.11
2022-11-24T07:39:19.805Z,85.39
2022-11-24T07:41:49.838Z,84.60
2022-11-24T07:44:19.279Z,84.36
2022-11-24T07:46:50.644Z,84.74
2022-11-24T07:49:20.713Z,84.58
2022-11-24T07:51:50.524Z,84.59
2022-11-24T07:54:20.060Z,85.29
2022-11-24T07:56:50.168Z,84.05
2022-11-24T07:59:19.894Z,84.72
2022-11-24T08:01:49.688Z,84.79
2022-11-24T08:04:19.218Z,84.73
2022-11-24T08:06:48.969Z,84.74
2022-11-24T08:09:18.735Z,83.76
2022-11-24T08:11:48.775Z,83.64
2022-11-24T08:14:18.207Z,83.41
2022-11-24T08:16:48.023Z,83.49
2022-11-24T08:19:17.767Z,83.89
2022-11-24T08:21:47.700Z,84.09
2022-11-24T08:24:17.257Z,83.59
2022-11-24T08:26:47.567Z,83.29
2022-11-24T08:29:17.289Z,83.36
2022-11-24T08:31:47.438Z,83.77
2022-11-24T08:34:17.095Z,83.87
2022-11-24T08:36:46.855Z,83.00
2022-11-24T08:39:16.587Z,82.55
2022-11-24T08:41:46.398Z,82.64
2022-11-24T08:44:18.145Z,83.52
2022-11-24T08:46:47.967Z,83.55
2022-11-24T08:49:18.831Z,84.20
2022-11-24T08:51:49.903Z,85.13
2022-11-24T08:54:20.304Z,84.59
2022-11-24T08:56:50.934Z,84.59
2022-11-24T08:59:20.856Z,85.40
2022-11-24T09:01:51.075Z,84.74
2022-11-24T09:04:20.925Z,84.89
2022-11-24T09:06:50.739Z,84.43
2022-11-24T09:09:20.500Z,83.56
2022-11-24T09:11:50.224Z,83.79
2022-11-24T09:14:20.079Z,84.30
2022-11-24T09:16:49.907Z,83.53
2022-11-24T09:19:19.642Z,82.78
2022-11-24T09:21:49.379Z,82.50
2022-11-24T09:24:18.987Z,83.46
2022-11-24T09:26:48.751Z,82.95
2022-11-24T09:29:18.498Z,82.29
2022-11-24T09:31:48.288Z,81.66
2022-11-24T09:34:18.059Z,80.49
2022-11-24T09:36:47.796Z,79.77
2022-11-24T09:39:17.515Z,79.33
2022-11-24T09:41:59.199Z,80.47
2022-11-24T09:44:55.224Z,79.70
2022-11-24T09:47:46.126Z,79.70
2022-11-24T09:50:27.921Z,79.28
2022-11-24T09:53:15.584Z,79.23
2022-11-24T09:55:56.986Z,78.18
2022-11-24T09:58:32.356Z,77.81
2022-11-24T10:01:12.227Z,78.27
2022-11-24T10:03:44.763Z,77.77
2022-11-24T10:06:30.077Z,77.43
2022-11-24T10:09:05.796Z,77.60
2022-11-24T10:11:56.043Z,77.49
2022-11-24T10:14:34.319Z,75.84
2022-11-24T10:17:18.892Z,75.62
2022-11-24T10:20:00.541Z,74.75
2022-11-24T10:22:58.536Z,75.52
2022-11-24T10:25:34.153Z,74.66
2022-11-24T10:28:09.368Z,75.44
2022-11-24T10:30:39.222Z,74.43
2022-11-24T10:33:14.979Z,74.43
2022-11-24T10:35:55.980Z,74.28
2022-11-24T10:38:40.449Z,74.55
2022-11-24T10:41:13.244Z,74.55
2022-11-24T10:43:44.146Z,75.23
2022-11-24T10:46:16.267Z,74.37
2022-11-24T10:48:49.069Z,73.19
2022-11-24T10:51:30.534Z,72.41
2022-11-24T10:54:03.338Z,73.66
2022-11-24T10:56:41.187Z,73.82
2022-11-24T10:59:32.453Z,73.52
2022-11-24T11:02:02.707Z,73.70
2022-11-24T11:04:36.941Z,74.10
2022-11-24T11:07:25.289Z,74.02
2022-11-24T11:10:20.705Z,73.05
2022-11-24T11:12:50.592Z,73.57
2022-11-24T11:15:31.697Z,72.99
2022-11-24T11:18:02.194Z,72.81
2022-11-24T11:20:36.544Z,72.57
2022-11-24T11:23:09.324Z,72.52
2022-11-24T11:25:41.019Z,71.93
2022-11-24T11:28:20.463Z,71.72
2022-11-24T11:31:20.053Z,71.26
2022-11-24T11:36:11.767Z,70.78
2022-11-24T11:38:42.470Z,69.93
2022-11-24T11:41:33.461Z,69.93
2022-11-24T11:44:17.873Z,70.80
2022-11-24T11:46:48.265Z,69.98
2022-11-24T11:49:17.979Z,69.24
2022-11-24T11:52:10.373Z,69.56
2022-11-24T11:54:48.577Z,69.65
2022-11-24T11:57:37.320Z,69.74
2022-11-24T12:00:22.920Z,68.35
2022-11-24T12:03:18.069Z,68.94
2022-11-24T12:05:53.533Z,68.94
2022-11-24T12:09:11.653Z,68.35
2022-11-24T12:11:30.395Z,68.42
2022-11-24T12:14:13.277Z,68.42
2022-11-24T12:16:57.392Z,69.23
2022-11-24T12:19:30.191Z,67.84
2022-11-24T12:22:25.169Z,67.24
2022-11-24T12:25:00.587Z,67.28
2022-11-24T12:27:51.524Z,65.15
2022-11-24T12:30:22.994Z,65.53
2022-11-24T12:33:07.940Z,63.86
2022-11-24T12:35:43.891Z,64.29
2022-11-24T12:38:29.350Z,64.12
2022-11-24T12:43:53.668Z,66.49
2022-11-24T12:46:50.308Z,65.70
2022-11-24T12:49:40.522Z,65.76
2022-11-24T12:52:29.031Z,65.82
2022-11-24T12:55:00.587Z,66.43
2022-11-24T12:57:39.757Z,66.47
2022-11-24T13:00:32.703Z,65.84
2022-11-24T13:03:23.450Z,65.51
2022-11-24T13:05:58.948Z,63.54
2022-11-24T13:08:30.549Z,63.64
2022-11-24T13:11:25.328Z,61.33
2022-11-24T13:14:00.474Z,61.33
2022-11-24T13:16:48.756Z,62.46
2022-11-24T13:19:04.850Z,61.43
2022-11-24T13:21:38.697Z,61.71
2022-11-24T13:24:25.082Z,61.76
2022-11-24T13:27:17.951Z,61.38
2022-11-24T13:29:49.540Z,62.32
2022-11-24T13:32:22.150Z,61.31
2022-11-24T13:34:57.595Z,62.24
2022-11-24T13:37:34.564Z,62.24
2022-11-24T13:40:18.100Z,62.50
2022-11-24T13:43:02.649Z,63.41
2022-11-24T13:45:45.798Z,64.60
2022-11-24T13:48:23.982Z,64.81
2022-11-24T13:50:57.071Z,64.26
2022-11-24T13:53:35.592Z,64.70
2022-11-24T13:56:16.334Z,64.23
2022-11-24T13:58:52.435Z,64.03
2022-11-24T14:01:33.431Z,64.10
2022-11-24T14:04:30.418Z,64.91
2022-11-24T14:07:01.179Z,64.48
2022-11-24T14:09:46.602Z,64.59
2022-11-24T14:12:19.156Z,64.09
2022-11-24T14:14:51.663Z,64.10
2022-11-24T14:17:24.457Z,64.06
2022-11-24T14:19:56.708Z,64.14
2022-11-24T14:22:35.300Z,65.14
2022-11-24T14:25:07.641Z,65.33
2022-11-24T14:27:39.988Z,64.82
2022-11-24T14:30:14.408Z,64.49
2022-11-24T14:32:47.202Z,64.69
2022-11-24T14:35:26.070Z,65.82
2022-11-24T14:37:56.490Z,65.73
2022-11-24T14:40:46.559Z,66.24
2022-11-24T14:43:25.115Z,67.14
2022-11-24T14:46:07.172Z,67.14
2022-11-24T14:48:42.762Z,68.66
2022-11-24T14:51:15.278Z,68.34
2022-11-24T14:53:47.641Z,68.38
2022-11-24T14:56:28.674Z,68.18
2022-11-24T14:58:59.538Z,69.03
2022-11-24T15:01:34.794Z,69.21
2022-11-24T15:07:19.158Z,69.37
2022-11-24T15:09:51.973Z,69.97
2022-11-24T15:12:34.400Z,70.37
2022-11-24T15:15:20.115Z,71.03
2022-11-24T15:17:53.448Z,70.84
2022-11-24T15:20:31.995Z,71.43
2022-11-24T15:23:24.205Z,72.17
2022-11-24T15:26:05.538Z,71.88
2022-11-24T15:28:35.441Z,72.42
2022-11-24T15:31:07.338Z,72.37
2022-11-24T15:33:37.019Z,72.70
2022-11-24T15:36:08.873Z,73.07
2022-11-24T15:38:38.607Z,72.85
2022-11-24T15:41:17.719Z,73.04
2022-11-24T15:43:47.841Z,73.13
2022-11-24T15:46:17.467Z,73.75
2022-11-24T15:48:47.300Z,74.10
2022-11-24T15:51:17.049Z,74.16
2022-11-24T15:53:55.671Z,74.46
2022-11-24T15:56:29.163Z,74.54
2022-11-24T15:58:58.676Z,75.13
2022-11-24T16:01:31.658Z,74.90
2022-11-24T16:04:02.504Z,75.39
2022-11-24T16:06:32.496Z,75.47
2022-11-24T16:09:02.251Z,75.74
2022-11-24T16:11:32.007Z,76.63
2022-11-24T16:14:02.050Z,76.98
2022-11-24T16:16:31.972Z,76.72
2022-11-24T16:19:01.773Z,76.83
2022-11-24T16:21:31.911Z,76.94
2022-11-24T16:24:01.395Z,76.32
2022-11-24T16:26:31.160Z,76.48
2022-11-24T16:29:00.887Z,76.74
2022-11-24T16:31:30.993Z,76.70
2022-11-24T16:34:00.749Z,76.83
2022-11-24T16:36:30.323Z,76.82
2022-11-24T16:39:01.132Z,77.02
2022-11-24T16:41:30.893Z,77.50
2022-11-24T16:44:00.641Z,77.90
2022-11-24T16:46:30.474Z,77.98
2022-11-24T16:49:01.140Z,77.65
2022-11-24T16:51:34.680Z,77.30
2022-11-24T16:54:04.002Z,77.64
2022-11-24T16:56:33.821Z,78.26
2022-11-24T16:59:03.733Z,78.31
2022-11-24T17:01:33.583Z,78.66
2022-11-24T17:04:06.997Z,78.80
2022-11-24T17:06:35.496Z,78.15
2022-11-24T17:09:05.667Z,78.50
2022-11-24T17:11:35.442Z,78.66
2022-11-24T17:14:05.823Z,78.18
2022-11-24T17:16:35.705Z,78.35
2022-11-24T17:19:06.500Z,78.33
2022-11-24T17:21:36.616Z,78.29
2022-11-24T17:24:10.074Z,79.00
2022-11-24T17:26:42.501Z,79.32
2022-11-24T17:29:11.414Z,79.47
2022-11-24T17:31:41.230Z,80.25
2022-11-24T17:34:13.416Z,80.08
2022-11-24T17:36:44.882Z,80.28
2022-11-24T17:39:15.332Z,79.68
2022-11-24T17:41:45.520Z,79.02
2022-11-24T17:44:15.249Z,79.31
2022-11-24T17:46:45.655Z,79.18
2022-11-24T17:49:15.398Z,79.26
2022-11-24T17:51:46.763Z,78.73
2022-11-24T17:54:45.229Z,78.62
2022-11-24T17:56:48.891Z,78.36
2022-11-24T17:59:18.859Z,77.95
2022-11-24T18:01:48.670Z,78.42
2022-11-24T18:04:18.399Z,78.77
2022-11-24T18:06:48.194Z,78.38
2022-11-24T18:09:18.247Z,78.00
2022-11-24T18:11:47.974Z,78.01
2022-11-24T18:14:17.756Z,77.74
2022-11-24T18:16:47.610Z,78.14
2022-11-24T18:19:17.745Z,78.19
2022-11-24T18:21:47.455Z,78.19
2022-11-24T18:24:23.777Z,78.27
2022-11-24T18:26:50.137Z,77.70
2022-11-24T18:29:19.881Z,77.44
2022-11-24T18:31:49.701Z,77.33
2022-11-24T18:34:19.727Z,77.53
2022-11-24T18:36:51.109Z,76.68
2022-11-24T18:39:20.572Z,77.21
2022-11-24T18:41:50.401Z,77.54
2022-11-24T18:44:20.584Z,77.36
2022-11-24T18:46:50.695Z,77.97
2022-11-24T18:49:20.458Z,77.31
2022-11-24T18:51:50.596Z,77.31
2022-11-24T18:54:20.513Z,77.28
2022-11-24T18:56:50.360Z,77.52
2022-11-24T18:59:20.178Z,77.58
2022-11-24T19:01:50.091Z,77.99
2022-11-24T19:04:19.825Z,78.07
2022-11-24T19:06:49.559Z,77.88
2022-11-24T19:09:21.419Z,77.59
2022-11-24T19:11:51.145Z,77.98
2022-11-24T19:14:20.963Z,77.77
2022-11-24T19:16:50.938Z,77.38
2022-11-24T19:19:20.751Z,77.61
2022-11-24T19:21:50.492Z,77.78
2022-11-24T19:24:19.987Z,77.63
2022-11-24T19:26:51.193Z,77.52
2022-11-24T19:29:21.393Z,77.49
2022-11-24T19:31:51.198Z,78.41
2022-11-24T19:34:21.031Z,78.39
2022-11-24T19:36:50.765Z,77.84
2022-11-24T19:39:20.564Z,77.91
2022-11-24T19:41:50.309Z,77.66
2022-11-24T19:44:20.102Z,77.81
2022-11-24T19:46:49.915Z,77.94
2022-11-24T19:49:19.629Z,77.29
2022-11-24T19:51:49.935Z,77.75
2022-11-24T19:54:19.658Z,77.88
2022-11-24T19:56:49.463Z,77.45
2022-11-24T19:59:19.407Z,77.88
2022-11-24T20:01:49.244Z,78.74
2022-11-24T20:04:20.277Z,78.23
2022-11-24T20:06:50.029Z,77.60
2022-11-24T20:09:19.820Z,77.60
2022-11-24T20:11:49.561Z,77.67
2022-11-24T20:14:19.380Z,77.63
2022-11-24T20:16:49.432Z,77.66
2022-11-24T20:19:19.786Z,78.16
2022-11-24T20:21:50.245Z,77.75
2022-11-24T20:24:24.640Z,78.25
2022-11-24T20:26:58.180Z,78.24
2022-11-24T20:29:29.156Z,78.13
2022-11-24T20:31:58.940Z,78.47
2022-11-24T20:34:28.803Z,78.47
2022-11-24T20:36:58.538Z,78.50
2022-11-24T20:39:29.150Z,77.87
2022-11-24T20:41:59.488Z,78.29
2022-11-24T20:44:30.111Z,78.06
2022-11-24T20:47:01.205Z,77.46
2022-11-24T20:49:30.774Z,77.59
2022-11-24T20:52:00.673Z,77.13
2022-11-24T20:54:31.062Z,77.13
2022-11-24T20:57:00.800Z,77.20
2022-11-24T20:59:30.591Z,77.34
2022-11-24T21:02:00.478Z,77.01
2022-11-24T21:04:30.568Z,77.06
2022-11-24T21:07:00.375Z,76.70
2022-11-24T21:09:30.560Z,76.70
2022-11-24T21:12:00.889Z,76.54
2022-11-24T21:14:35.135Z,76.51
2022-11-24T21:17:02.284Z,76.21
2022-11-24T21:19:32.024Z,76.21
2022-11-24T21:22:01.478Z,75.89
2022-11-24T21:24:31.221Z,76.28
2022-11-24T21:27:00.961Z,76.11
2022-11-24T21:29:30.406Z,75.95
2022-11-24T21:32:00.365Z,76.32
2022-11-24T21:34:29.881Z,75.68
2022-11-24T21:36:59.609Z,75.78
2022-11-24T21:39:29.729Z,76.49
2022-11-24T21:41:59.484Z,75.82
2022-11-24T21:44:30.911Z,76.21
2022-11-24T21:47:01.037Z,76.08
2022-11-24T21:49:31.129Z,76.08
2022-11-24T21:52:00.878Z,75.75
2022-11-24T21:54:30.899Z,75.75
2022-11-24T21:57:00.658Z,76.02
2022-11-24T21:59:30.682Z,76.50
2022-11-24T22:02:00.579Z,76.50
2022-11-24T22:04:30.035Z,76.78
2022-11-24T22:06:59.763Z,76.86
2022-11-24T22:09:29.799Z,77.46
2022-11-24T22:11:59.551Z,77.89
2022-11-24T22:14:29.272Z,77.48
2022-11-24T22:16:59.051Z,77.48
2022-11-24T22:19:28.787Z,77.93
2022-11-24T22:21:58.549Z,78.34
2022-11-24T22:24:27.995Z,78.31
2022-11-24T22:26:58.027Z,77.49
2022-11-24T22:29:28.243Z,77.80
2022-11-24T22:31:58.444Z,78.83
2022-11-24T22:34:28.034Z,78.84
2022-11-24T22:36:58.062Z,78.33
2022-11-24T22:39:27.811Z,78.64
2022-11-24T22:41:57.538Z,77.97
2022-11-24T22:44:27.270Z,78.05
2022-11-24T22:46:57.882Z,79.30
2022-11-24T22:49:28.224Z,78.47
2022-11-24T22:51:57.984Z,78.98
2022-11-24T22:54:28.009Z,78.38
2022-11-24T22:56:57.746Z,78.62
2022-11-24T22:59:27.479Z,78.40
2022-11-24T23:01:57.251Z,79.35
2022-11-24T23:04:27.393Z,79.27
2022-11-24T23:06:57.190Z,79.05
2022-11-24T23:09:27.001Z,78.65
2022-11-24T23:11:56.751Z,79.06
2022-11-24T23:14:26.998Z,78.87
2022-11-24T23:16:56.679Z,78.87
2022-11-24T23:19:26.742Z,78.96
2022-11-24T23:21:56.474Z,79.30
2022-11-24T23:24:26.274Z,78.86
2022-11-24T23:26:56.007Z,78.40
2022-11-24T23:29:26.037Z,78.90
2022-11-24T23:31:55.837Z,78.19
2022-11-24T23:34:25.577Z,78.19
2022-11-24T23:36:55.314Z,78.19
2022-11-24T23:39:25.054Z,78.10
2022-11-24T23:41:54.508Z,78.83
2022-11-24T23:44:24.237Z,78.90
2022-11-24T23:46:53.970Z,80.06
2022-11-24T23:49:23.706Z,80.49
2022-11-24T23:51:53.610Z,81.08
2022-11-24T23:54:23.347Z,81.21
2022-11-24T23:56:52.975Z,81.98
2022-11-24T23:59:22.798Z,81.64
